createdAt,value
2019-05-29T00:00:13.043Z,7.2
2019-05-29T00:01:27.357Z,7.3
2019-05-29T00:02:41.461Z,7.3
2019-05-29T00:03:55.699Z,7.2
2019-05-29T00:05:09.899Z,7.3
2019-05-29T00:06:24.172Z,7.2
2019-05-29T00:07:38.347Z,7.2
2019-05-29T00:08:52.574Z,7.1
2019-05-29T00:10:06.809Z,7.1
2019-05-29T00:11:21.068Z,7.1
2019-05-29T00:12:35.326Z,7
2019-05-29T00:13:49.564Z,7.1
2019-05-29T00:15:07.451Z,7.1
2019-05-29T00:16:17.999Z,7.1
2019-05-29T00:17:32.135Z,7
2019-05-29T00:18:46.372Z,7
2019-05-29T00:20:00.591Z,7
2019-05-29T00:21:14.897Z,6.9
2019-05-29T00:22:29.049Z,7
2019-05-29T00:23:43.260Z,7
2019-05-29T00:24:57.590Z,7
2019-05-29T00:26:11.735Z,6.9
2019-05-29T00:27:25.934Z,6.9
2019-05-29T00:28:40.159Z,6.9
2019-05-29T00:29:54.383Z,6.7
2019-05-29T00:31:08.612Z,6.6
2019-05-29T00:32:22.852Z,6.6
2019-05-29T00:33:37.111Z,6.6
2019-05-29T00:34:52.557Z,6.6
2019-05-29T00:36:05.641Z,6.7
2019-05-29T00:37:19.737Z,6.7
2019-05-29T00:38:33.965Z,6.7
2019-05-29T00:39:48.189Z,6.6
2019-05-29T00:41:02.424Z,6.4
2019-05-29T00:42:16.647Z,6.5
2019-05-29T00:43:30.904Z,6.4
2019-05-29T00:44:45.105Z,6.3
2019-05-29T00:45:59.330Z,6.4
2019-05-29T00:47:13.566Z,6.4
2019-05-29T00:48:27.799Z,6.3
2019-05-29T00:49:42.029Z,6.4
2019-05-29T00:50:56.268Z,6.4
2019-05-29T00:52:10.596Z,6.6
2019-05-29T00:53:24.784Z,6.6
2019-05-29T00:54:38.945Z,6.5
2019-05-29T00:55:53.229Z,6.7
2019-05-29T00:57:07.523Z,6.6
2019-05-29T00:58:21.721Z,6.6
2019-05-29T00:59:35.870Z,6.7
2019-05-29T01:00:50.110Z,6.6
2019-05-29T01:02:04.344Z,6.5
2019-05-29T01:03:18.576Z,6.5
2019-05-29T01:04:32.788Z,6.5
2019-05-29T01:05:47.010Z,6.4
2019-05-29T01:07:01.249Z,6.5
2019-05-29T01:08:15.578Z,6.4
2019-05-29T01:09:29.802Z,6.4
2019-05-29T01:10:44.036Z,6.4
2019-05-29T01:11:58.137Z,6.4
2019-05-29T01:13:12.399Z,6.4
2019-05-29T01:14:26.599Z,6.4
2019-05-29T01:18:12.249Z,6.3
2019-05-29T01:19:23.504Z,6.2
2019-05-29T01:20:37.729Z,6.3
2019-05-29T01:21:51.971Z,6.2
2019-05-29T01:23:06.216Z,6.2
2019-05-29T01:24:20.428Z,6.1
2019-05-29T01:25:34.742Z,6.1
2019-05-29T01:26:48.866Z,6.1
2019-05-29T01:28:03.099Z,6.1
2019-05-29T01:29:17.316Z,6
2019-05-29T01:30:31.559Z,6
2019-05-29T01:31:45.778Z,6.1
2019-05-29T01:33:00.025Z,6.1
2019-05-29T01:34:14.298Z,6.2
2019-05-29T01:35:28.437Z,6.2
2019-05-29T01:36:42.672Z,6.2
2019-05-29T01:37:56.895Z,6.3
2019-05-29T01:39:11.135Z,6.2
2019-05-29T01:40:25.344Z,6.2
2019-05-29T01:41:39.652Z,6.1
2019-05-29T01:42:53.795Z,6.1
2019-05-29T01:44:08.021Z,6.1
2019-05-29T01:45:22.281Z,6.2
2019-05-29T01:46:36.474Z,6.2
2019-05-29T01:47:50.750Z,6.3
2019-05-29T01:49:04.963Z,6.2
2019-05-29T01:50:19.191Z,6.2
2019-05-29T01:51:33.410Z,6.2
2019-05-29T01:52:47.642Z,6.2
2019-05-29T01:54:01.856Z,6.2
2019-05-29T01:55:16.115Z,6.1
2019-05-29T01:56:30.323Z,6.1
2019-05-29T01:57:44.545Z,6
2019-05-29T01:58:58.774Z,6.1
2019-05-29T02:00:15.781Z,5.9
2019-05-29T02:01:27.255Z,5.8
2019-05-29T02:02:41.461Z,5.8
2019-05-29T02:03:55.711Z,5.9
2019-05-29T02:05:13.934Z,6
2019-05-29T02:06:24.150Z,6
2019-05-29T02:07:38.482Z,6.1
2019-05-29T02:08:52.615Z,6
2019-05-29T02:10:06.853Z,6.1
2019-05-29T02:11:21.194Z,6.1
2019-05-29T02:12:35.431Z,6
2019-05-29T02:13:49.537Z,5.9
2019-05-29T02:15:03.765Z,5.9
2019-05-29T02:16:18.004Z,6
2019-05-29T02:17:32.259Z,5.9
2019-05-29T02:18:46.500Z,6
2019-05-29T02:20:00.730Z,6
2019-05-29T02:21:14.975Z,6
2019-05-29T02:22:29.192Z,6
2019-05-29T02:23:43.556Z,6
2019-05-29T02:24:57.683Z,6
2019-05-29T02:26:11.960Z,6
2019-05-29T02:27:26.118Z,6
2019-05-29T02:28:40.368Z,5.9
2019-05-29T02:29:54.588Z,5.9
2019-05-29T02:31:08.911Z,5.9
2019-05-29T02:32:23.065Z,5.9
2019-05-29T02:33:37.315Z,5.7
2019-05-29T02:34:51.540Z,5.8
2019-05-29T02:36:05.825Z,5.8
2019-05-29T02:37:20.000Z,5.7
2019-05-29T02:38:34.233Z,5.5
2019-05-29T02:39:48.482Z,5.4
2019-05-29T02:41:02.706Z,5.3
2019-05-29T02:42:17.006Z,5.3
2019-05-29T02:43:35.864Z,5.4
2019-05-29T02:44:45.417Z,5.5
2019-05-29T02:47:14.026Z,5.7
2019-05-29T02:48:28.201Z,5.6
2019-05-29T02:49:42.387Z,5.6
2019-05-29T02:50:56.621Z,5.8
2019-05-29T02:52:10.913Z,5.8
2019-05-29T02:53:25.142Z,5.7
2019-05-29T02:54:39.429Z,5.7
2019-05-29T02:55:53.725Z,5.7
2019-05-29T02:57:07.791Z,5.8
2019-05-29T02:58:22.109Z,5.8
2019-05-29T02:59:36.292Z,5.9
2019-05-29T03:00:50.502Z,5.9
2019-05-29T03:02:04.757Z,5.8
2019-05-29T03:03:18.979Z,5.8
2019-05-29T03:04:36.155Z,5.8
2019-05-29T03:05:47.444Z,5.7
2019-05-29T03:07:01.679Z,5.6
2019-05-29T03:08:19.166Z,5.8
2019-05-29T03:09:30.269Z,5.8
2019-05-29T03:10:44.492Z,5.8
2019-05-29T03:11:58.621Z,5.8
2019-05-29T03:13:12.835Z,5.7
2019-05-29T03:14:27.440Z,5.7
2019-05-29T03:15:41.344Z,5.7
2019-05-29T03:16:55.531Z,5.6
2019-05-29T03:18:09.727Z,5.7
2019-05-29T03:19:23.970Z,5.7
2019-05-29T03:20:38.241Z,5.7
2019-05-29T03:21:52.443Z,5.6
2019-05-29T03:23:06.744Z,5.5
2019-05-29T03:24:20.946Z,5.4
2019-05-29T03:25:37.366Z,5.3
2019-05-29T03:26:49.361Z,5.3
2019-05-29T03:28:03.588Z,5.3
2019-05-29T03:29:17.818Z,5.3
2019-05-29T03:30:32.058Z,5.3
2019-05-29T03:31:46.347Z,5.2
2019-05-29T03:33:00.537Z,5.3
2019-05-29T03:34:14.812Z,5.3
2019-05-29T03:35:28.973Z,5.4
2019-05-29T03:36:43.199Z,5.5
2019-05-29T03:37:57.468Z,5.5
2019-05-29T03:39:11.688Z,5.4
2019-05-29T03:40:25.899Z,5.5
2019-05-29T03:41:40.197Z,5.6
2019-05-29T03:42:54.414Z,5.5
2019-05-29T03:44:08.705Z,5.5
2019-05-29T03:45:22.923Z,5.5
2019-05-29T03:46:37.209Z,5.4
2019-05-29T03:47:51.308Z,5.4
2019-05-29T03:49:05.553Z,5.5
2019-05-29T03:50:19.839Z,5.4
2019-05-29T03:51:33.991Z,5.6
2019-05-29T03:52:48.227Z,5.6
2019-05-29T03:54:02.457Z,5.7
2019-05-29T03:55:16.724Z,5.7
2019-05-29T03:56:30.940Z,5.8
2019-05-29T03:57:45.202Z,5.8
2019-05-29T03:58:59.370Z,5.7
2019-05-29T04:00:13.591Z,5.8
2019-05-29T04:01:27.814Z,5.8
2019-05-29T04:02:42.054Z,5.8
2019-05-29T04:03:56.288Z,5.8
2019-05-29T04:05:10.488Z,5.9
2019-05-29T04:06:24.811Z,5.9
2019-05-29T04:07:38.991Z,6
2019-05-29T04:08:53.154Z,6
2019-05-29T04:10:07.413Z,6
2019-05-29T04:11:21.605Z,6.2
2019-05-29T04:12:35.841Z,6.2
2019-05-29T04:13:50.082Z,6.1
2019-05-29T04:15:05.857Z,6.1
2019-05-29T04:16:18.601Z,6.3
2019-05-29T04:17:32.848Z,6.2
2019-05-29T04:18:49.407Z,6.3
2019-05-29T04:20:01.213Z,6.2
2019-05-29T04:21:15.420Z,6.2
2019-05-29T04:22:29.632Z,6.3
2019-05-29T04:23:43.860Z,6.4
2019-05-29T04:25:00.775Z,6.4
2019-05-29T04:26:12.344Z,6.4
2019-05-29T04:27:26.513Z,6.4
2019-05-29T04:28:40.780Z,6.5
2019-05-29T04:29:54.965Z,6.7
2019-05-29T04:31:09.229Z,6.9
2019-05-29T04:32:23.458Z,7.3
2019-05-29T04:33:37.677Z,7.5
2019-05-29T04:34:51.860Z,7.6
2019-05-29T04:36:07.016Z,8
2019-05-29T04:37:20.326Z,8.2
2019-05-29T04:38:34.535Z,8.3
2019-05-29T04:39:48.734Z,8.6
2019-05-29T04:41:03.046Z,8.8
2019-05-29T04:42:17.174Z,9.1
2019-05-29T04:43:31.394Z,9.3
2019-05-29T04:44:45.627Z,9.5
2019-05-29T04:45:59.813Z,9.5
2019-05-29T04:47:14.033Z,9.7
2019-05-29T04:48:28.238Z,9.8
2019-05-29T04:49:42.618Z,9.9
2019-05-29T04:50:56.650Z,9.9
2019-05-29T04:52:10.882Z,10
2019-05-29T04:53:25.116Z,10.2
2019-05-29T04:54:39.388Z,10
2019-05-29T04:55:53.470Z,10.2
2019-05-29T04:57:07.671Z,10.2
2019-05-29T04:58:21.880Z,10.3
2019-05-29T04:59:36.200Z,10.3
2019-05-29T05:00:50.317Z,10.5
2019-05-29T05:02:04.484Z,10.5
2019-05-29T05:03:18.694Z,10.6
2019-05-29T05:04:32.928Z,10.7
2019-05-29T05:05:47.090Z,10.8
2019-05-29T05:07:01.328Z,11
2019-05-29T05:08:15.502Z,11.1
2019-05-29T05:09:29.693Z,11.2
2019-05-29T05:10:43.945Z,11.3
2019-05-29T05:11:58.095Z,11.4
2019-05-29T05:13:12.277Z,11.5
2019-05-29T05:14:26.799Z,11.6
2019-05-29T05:15:40.675Z,11.7
2019-05-29T05:16:54.886Z,11.6
2019-05-29T05:18:09.033Z,11.7
2019-05-29T05:19:23.226Z,11.7
2019-05-29T05:20:37.457Z,11.8
2019-05-29T05:21:51.623Z,12.1
2019-05-29T05:23:05.803Z,12.3
2019-05-29T05:24:20.015Z,12.4
2019-05-29T05:25:34.203Z,12.6
2019-05-29T05:26:48.385Z,12.5
2019-05-29T05:28:02.558Z,12.4
2019-05-29T05:29:16.739Z,12.4
2019-05-29T05:30:30.957Z,12.4
2019-05-29T05:31:45.093Z,12.6
2019-05-29T05:32:59.275Z,12.7
2019-05-29T05:34:13.502Z,12.9
2019-05-29T05:35:27.681Z,13.1
2019-05-29T05:36:41.831Z,13
2019-05-29T05:37:56.024Z,13
2019-05-29T05:39:10.177Z,13.1
2019-05-29T05:40:24.428Z,13.4
2019-05-29T05:41:38.652Z,13.3
2019-05-29T05:42:52.695Z,13.2
2019-05-29T05:44:06.893Z,12.9
2019-05-29T05:45:21.147Z,13
2019-05-29T05:46:35.209Z,13.1
2019-05-29T05:47:52.761Z,13.3
2019-05-29T05:49:03.537Z,13.5
2019-05-29T05:50:17.703Z,13.5
2019-05-29T05:51:31.885Z,13.7
2019-05-29T05:52:46.043Z,13.9
2019-05-29T05:54:00.210Z,13.8
2019-05-29T05:55:14.398Z,13.4
2019-05-29T05:56:28.577Z,13.4
2019-05-29T05:57:42.687Z,13.6
2019-05-29T05:58:56.877Z,13.9
2019-05-29T06:00:11.018Z,14.1
2019-05-29T06:01:25.161Z,13.9
2019-05-29T06:02:39.327Z,13.5
2019-05-29T06:03:53.517Z,13.4
2019-05-29T06:05:07.642Z,13.3
2019-05-29T06:06:21.786Z,13.5
2019-05-29T06:07:36.106Z,13.7
2019-05-29T06:08:50.108Z,14.2
2019-05-29T06:10:04.312Z,13.8
2019-05-29T06:11:18.408Z,13.8
2019-05-29T06:12:32.570Z,13.4
2019-05-29T06:13:46.919Z,13.6
2019-05-29T06:15:00.892Z,13.9
2019-05-29T06:16:15.034Z,14.2
2019-05-29T06:17:29.193Z,14.4
2019-05-29T06:18:43.362Z,14.2
2019-05-29T06:19:57.469Z,13.6
2019-05-29T06:21:11.620Z,13.2
2019-05-29T06:22:25.749Z,13.5
2019-05-29T06:23:39.938Z,13.6
2019-05-29T06:24:54.180Z,13.9
2019-05-29T06:26:08.185Z,14.3
2019-05-29T06:27:22.364Z,14.7
2019-05-29T06:28:36.507Z,14.4
2019-05-29T06:29:50.690Z,14.6
2019-05-29T06:31:04.755Z,14.1
2019-05-29T06:32:18.915Z,14
2019-05-29T06:33:33.100Z,14.1
2019-05-29T06:34:47.192Z,14.6
2019-05-29T06:36:01.340Z,14.7
2019-05-29T06:37:15.473Z,14.8
2019-05-29T06:38:29.653Z,15.3
2019-05-29T06:39:43.808Z,15.3
2019-05-29T06:40:57.980Z,14.8
2019-05-29T06:42:12.004Z,14.6
2019-05-29T06:43:26.213Z,14.9
2019-05-29T06:44:40.340Z,15.3
2019-05-29T06:45:54.534Z,15.6
2019-05-29T06:47:08.514Z,14.8
2019-05-29T06:48:22.669Z,14.9
2019-05-29T06:49:36.774Z,15.3
2019-05-29T06:50:51.064Z,15.7
2019-05-29T06:52:05.025Z,16
2019-05-29T06:53:19.116Z,16.4
2019-05-29T06:54:33.266Z,16.3
2019-05-29T06:55:47.418Z,16.5
2019-05-29T06:57:01.452Z,16.9
2019-05-29T06:58:15.612Z,16.2
2019-05-29T06:59:29.677Z,16.1
2019-05-29T07:00:47.452Z,16.2
2019-05-29T07:02:02.749Z,16.4
2019-05-29T07:03:11.977Z,16.3
2019-05-29T07:04:26.102Z,15.9
2019-05-29T07:05:40.280Z,15.4
2019-05-29T07:06:54.381Z,15.5
2019-05-29T07:08:08.564Z,16
2019-05-29T07:09:22.503Z,15.3
2019-05-29T07:10:36.601Z,15.8
2019-05-29T07:11:50.707Z,16
2019-05-29T07:13:04.772Z,16.4
2019-05-29T07:14:18.894Z,16.1
2019-05-29T07:15:33.048Z,16.5
2019-05-29T07:16:47.074Z,16.2
2019-05-29T07:18:01.148Z,16.5
2019-05-29T07:19:15.352Z,16.8
2019-05-29T07:20:29.408Z,16.9
2019-05-29T07:21:43.530Z,16.4
2019-05-29T07:22:57.550Z,15.3
2019-05-29T07:24:11.629Z,15.3
2019-05-29T07:25:25.740Z,15.3
2019-05-29T07:26:39.807Z,15.7
2019-05-29T07:27:53.899Z,16
2019-05-29T07:29:08.022Z,16.7
2019-05-29T07:30:22.114Z,16.8
2019-05-29T07:31:36.179Z,17.2
2019-05-29T07:32:50.352Z,17.5
2019-05-29T07:34:04.336Z,17.7
2019-05-29T07:35:18.424Z,18
2019-05-29T07:36:32.507Z,16.9
2019-05-29T07:37:46.585Z,16.2
2019-05-29T07:39:00.910Z,16.3
2019-05-29T07:40:14.756Z,16.1
2019-05-29T07:41:28.912Z,16.2
2019-05-29T07:43:56.982Z,17.2
2019-05-29T07:45:11.062Z,16.9
2019-05-29T07:46:25.136Z,16.7
2019-05-29T07:47:39.226Z,17.1
2019-05-29T07:48:53.320Z,18
2019-05-29T07:50:07.368Z,18.2
2019-05-29T07:51:21.483Z,18.3
2019-05-29T07:52:35.536Z,18
2019-05-29T07:53:49.572Z,18
2019-05-29T07:55:03.696Z,18.3
2019-05-29T07:56:17.737Z,18.8
2019-05-29T07:57:31.786Z,19.4
2019-05-29T07:58:45.914Z,19.4
2019-05-29T07:59:59.906Z,19.6
2019-05-29T08:01:13.993Z,19.5
2019-05-29T08:02:28.031Z,19.3
2019-05-29T08:03:42.103Z,18
2019-05-29T08:04:56.244Z,16.9
2019-05-29T08:06:10.206Z,17.4
2019-05-29T08:07:24.277Z,18.1
2019-05-29T08:08:38.338Z,18.5
2019-05-29T08:09:52.508Z,18
2019-05-29T08:11:06.457Z,17.8
2019-05-29T08:12:20.526Z,17.8
2019-05-29T08:13:34.579Z,17.4
2019-05-29T08:14:51.744Z,18
2019-05-29T08:16:02.723Z,18.4
2019-05-29T08:17:17.765Z,17.9
2019-05-29T08:18:30.831Z,16.6
2019-05-29T08:19:45.345Z,17.5
2019-05-29T08:20:59.006Z,17.7
2019-05-29T08:22:13.011Z,17.4
2019-05-29T08:23:27.090Z,16.5
2019-05-29T08:24:41.166Z,17.5
2019-05-29T08:25:55.221Z,17.5
2019-05-29T08:27:09.326Z,15.7
2019-05-29T08:28:23.440Z,14.3
2019-05-29T08:29:37.519Z,13.9
2019-05-29T08:30:51.685Z,14.7
2019-05-29T08:32:05.688Z,15.9
2019-05-29T08:33:19.764Z,17
2019-05-29T08:34:33.868Z,17.6
2019-05-29T08:35:48.009Z,17.8
2019-05-29T08:37:02.021Z,16
2019-05-29T08:38:16.135Z,14.9
2019-05-29T08:39:30.209Z,14.4
2019-05-29T08:40:44.315Z,13.7
2019-05-29T08:41:58.504Z,13.6
2019-05-29T08:43:12.525Z,14
2019-05-29T08:44:26.664Z,13.9
2019-05-29T08:45:40.781Z,13.9
2019-05-29T08:46:54.929Z,14.5
2019-05-29T08:48:09.021Z,15.3
2019-05-29T08:49:23.133Z,15.2
2019-05-29T08:50:37.366Z,16.4
2019-05-29T08:51:51.926Z,17.6
2019-05-29T08:53:05.512Z,18.4
2019-05-29T08:54:19.554Z,18.6
2019-05-29T08:55:33.629Z,18.4
2019-05-29T08:56:47.726Z,19.2
2019-05-29T08:58:01.797Z,18.8
2019-05-29T08:59:15.846Z,18.4
2019-05-29T09:00:29.982Z,18.7
2019-05-29T09:01:43.965Z,19.3
2019-05-29T09:02:58.002Z,19.4
2019-05-29T09:04:12.043Z,18.7
2019-05-29T09:05:26.074Z,18.8
2019-05-29T09:06:40.166Z,18.4
2019-05-29T09:07:54.238Z,17
2019-05-29T09:09:08.217Z,17.5
2019-05-29T09:10:22.315Z,17.9
2019-05-29T09:11:36.365Z,18.2
2019-05-29T09:12:50.423Z,18
2019-05-29T09:14:04.445Z,17.1
2019-05-29T09:15:18.578Z,17.5
2019-05-29T09:16:32.685Z,18.6
2019-05-29T09:17:46.663Z,18.7
2019-05-29T09:19:00.709Z,18.4
2019-05-29T09:20:14.773Z,17.9
2019-05-29T09:21:28.788Z,18.3
2019-05-29T09:22:42.833Z,19.3
2019-05-29T09:23:56.901Z,19.3
2019-05-29T09:25:10.977Z,19.3
2019-05-29T09:27:39.030Z,19.1
2019-05-29T09:28:53.086Z,18.6
2019-05-29T09:30:07.166Z,18.2
2019-05-29T09:31:21.288Z,19
2019-05-29T09:32:35.217Z,19.3
2019-05-29T09:33:49.240Z,20
2019-05-29T09:35:03.381Z,20
2019-05-29T09:36:17.395Z,20.1
2019-05-29T09:37:31.344Z,20.2
2019-05-29T09:38:45.476Z,19.9
2019-05-29T09:39:59.400Z,19.8
2019-05-29T09:41:13.523Z,20.3
2019-05-29T09:42:27.499Z,19.8
2019-05-29T09:43:41.513Z,19.8
2019-05-29T09:44:55.610Z,19.3
2019-05-29T09:46:09.586Z,19.1
2019-05-29T09:47:23.596Z,19.4
2019-05-29T09:48:37.624Z,19.7
2019-05-29T09:49:51.619Z,19.6
2019-05-29T09:51:05.744Z,20.1
2019-05-29T09:52:19.683Z,20.4
2019-05-29T09:53:33.717Z,21
2019-05-29T09:54:47.738Z,21
2019-05-29T09:56:01.775Z,20.6
2019-05-29T09:57:15.784Z,19.7
2019-05-29T09:58:29.829Z,19.6
2019-05-29T09:59:43.842Z,19.4
2019-05-29T10:00:58.005Z,19.9
2019-05-29T10:02:11.982Z,20.2
2019-05-29T10:03:25.922Z,20.8
2019-05-29T10:04:39.966Z,19.9
2019-05-29T10:05:53.978Z,18.7
2019-05-29T10:07:08.041Z,18.3
2019-05-29T10:08:22.032Z,18.2
2019-05-29T10:09:36.166Z,18.3
2019-05-29T10:10:50.229Z,19.2
2019-05-29T10:12:04.077Z,20.4
2019-05-29T10:13:18.181Z,20.8
2019-05-29T10:14:32.755Z,20.3
2019-05-29T10:15:46.688Z,20.1
2019-05-29T10:17:00.221Z,20
2019-05-29T10:18:14.193Z,20.2
2019-05-29T10:19:28.200Z,20.1
2019-05-29T10:20:42.268Z,20.2
2019-05-29T10:21:56.272Z,20.6
2019-05-29T10:23:10.379Z,20.4
2019-05-29T10:24:24.305Z,20.6
2019-05-29T10:26:52.426Z,19.6
2019-05-29T10:28:06.377Z,18.9
2019-05-29T10:30:34.423Z,18.3
2019-05-29T10:31:48.502Z,19.4
2019-05-29T10:33:02.574Z,20.5
2019-05-29T10:34:16.619Z,21.3
2019-05-29T10:35:30.503Z,21.8
2019-05-29T10:36:44.517Z,21.9
2019-05-29T10:37:58.597Z,22.3
2019-05-29T10:39:12.523Z,21.9
2019-05-29T10:40:26.553Z,21.2
2019-05-29T10:42:54.576Z,21.6
2019-05-29T10:44:08.599Z,22
2019-05-29T10:45:22.604Z,21.7
2019-05-29T10:46:36.617Z,21.7
2019-05-29T10:47:50.821Z,20.7
2019-05-29T10:49:04.752Z,20.4
2019-05-29T10:50:18.630Z,20.3
2019-05-29T10:51:32.663Z,19.9
2019-05-29T10:52:46.684Z,20.3
2019-05-29T10:54:00.834Z,20.3
2019-05-29T10:55:14.715Z,20
2019-05-29T10:56:28.750Z,19.1
2019-05-29T10:57:42.815Z,19
2019-05-29T10:58:56.840Z,19.1
2019-05-29T11:00:10.843Z,20.5
2019-05-29T11:01:24.979Z,20.5
2019-05-29T11:02:38.898Z,20.6
2019-05-29T11:03:52.944Z,20.1
2019-05-29T11:05:06.933Z,20.4
2019-05-29T11:06:21.042Z,20.6
2019-05-29T11:07:34.972Z,20.9
2019-05-29T11:08:49.067Z,20.7
2019-05-29T11:11:17.068Z,21.1
2019-05-29T11:12:31.083Z,21.4
2019-05-29T11:13:45.146Z,22.1
2019-05-29T11:14:59.140Z,22.8
2019-05-29T11:16:13.117Z,23
2019-05-29T11:17:27.228Z,22.5
2019-05-29T11:19:55.334Z,22.5
2019-05-29T11:21:09.253Z,22.1
2019-05-29T11:22:23.191Z,22.1
2019-05-29T11:23:37.293Z,22.8
2019-05-29T11:24:51.349Z,22
2019-05-29T11:26:05.326Z,20.1
2019-05-29T11:27:19.277Z,20
2019-05-29T11:28:33.311Z,20.5
2019-05-29T11:29:47.366Z,20.9
2019-05-29T11:31:01.361Z,21.5
2019-05-29T11:32:15.419Z,21.2
2019-05-29T11:33:29.409Z,20.8
2019-05-29T11:34:43.451Z,20
2019-05-29T11:35:57.478Z,20.6
2019-05-29T11:37:11.496Z,21.2
2019-05-29T11:38:25.541Z,21.7
2019-05-29T11:39:39.571Z,21.8
2019-05-29T11:40:53.674Z,22.1
2019-05-29T11:42:07.632Z,22.7
2019-05-29T11:43:21.676Z,22.9
2019-05-29T11:44:35.696Z,22.6
2019-05-29T11:45:49.704Z,22.6
2019-05-29T11:48:17.742Z,23.3
2019-05-29T11:49:31.776Z,23.3
2019-05-29T11:50:45.836Z,23
2019-05-29T11:53:13.858Z,22.4
2019-05-29T11:54:27.891Z,20.9
2019-05-29T11:55:41.916Z,21.8
2019-05-29T11:56:56.552Z,23.1
2019-05-29T11:58:10.502Z,23.2
2019-05-29T11:59:24.186Z,22.4
2019-05-29T12:00:38.007Z,22.3
2019-05-29T12:01:53.306Z,22.9
2019-05-29T12:03:06.156Z,22.4
2019-05-29T12:04:21.420Z,20.6
2019-05-29T12:05:34.109Z,21.2
2019-05-29T12:06:48.157Z,22
2019-05-29T12:08:02.259Z,22.8
2019-05-29T12:09:16.311Z,23.7
2019-05-29T12:10:30.271Z,23.7
2019-05-29T12:11:44.397Z,23.9
2019-05-29T12:14:12.362Z,22.9
2019-05-29T12:15:26.356Z,23.1
2019-05-29T12:17:54.699Z,21.7
2019-05-29T12:19:08.434Z,22.4
2019-05-29T12:20:23.780Z,21.4
2019-05-29T12:21:37.518Z,21.2
2019-05-29T12:22:50.523Z,21.2
2019-05-29T12:24:04.557Z,21.8
2019-05-29T12:25:18.601Z,21.7
2019-05-29T12:26:32.616Z,22.2
2019-05-29T12:29:05.391Z,22.6
2019-05-29T12:30:19.595Z,20.8
2019-05-29T12:31:28.853Z,20.2
2019-05-29T12:33:56.850Z,21.1
2019-05-29T12:35:10.882Z,20.9
2019-05-29T12:36:24.934Z,20.3
2019-05-29T12:37:38.975Z,20.8
2019-05-29T12:38:53.027Z,21.6
2019-05-29T12:40:07.100Z,20.8
2019-05-29T12:41:21.181Z,20.9
2019-05-29T12:42:35.886Z,21.5
2019-05-29T12:43:49.307Z,22
2019-05-29T12:45:03.278Z,22.7
2019-05-29T12:46:17.292Z,23.2
2019-05-29T12:47:31.340Z,23.8
2019-05-29T12:48:45.417Z,22.9
2019-05-29T12:49:59.623Z,22.6
2019-05-29T12:51:13.489Z,21.6
2019-05-29T12:52:27.558Z,21.6
2019-05-29T12:53:41.562Z,22
2019-05-29T12:54:55.728Z,23.1
2019-05-29T12:56:09.651Z,23.1
2019-05-29T12:57:23.702Z,23.2
2019-05-29T12:58:37.823Z,22.6
2019-05-29T12:59:51.825Z,21.8
2019-05-29T13:01:05.817Z,20.8
2019-05-29T13:02:19.845Z,21.6
2019-05-29T13:04:48.086Z,22
2019-05-29T13:06:02.008Z,22.5
2019-05-29T13:07:16.008Z,22.4
2019-05-29T13:10:58.148Z,23.4
2019-05-29T13:12:12.236Z,24.3
2019-05-29T13:13:26.331Z,24.4
2019-05-29T13:14:40.321Z,23.2
2019-05-29T13:17:08.408Z,22.3
2019-05-29T13:18:22.459Z,21.6
2019-05-29T13:19:36.437Z,21.1
2019-05-29T13:20:50.478Z,22.4
2019-05-29T13:22:04.609Z,23.4
2019-05-29T13:23:18.575Z,23.7
2019-05-29T13:24:32.641Z,23.3
2019-05-29T13:25:46.672Z,22.5
2019-05-29T13:27:00.728Z,21.5
2019-05-29T13:28:14.769Z,21.2
2019-05-29T13:29:28.814Z,21.8
2019-05-29T13:30:42.863Z,22
2019-05-29T13:31:57.059Z,22.5
2019-05-29T13:33:10.967Z,23.3
2019-05-29T13:34:25.014Z,23.4
2019-05-29T13:35:39.054Z,23.5
2019-05-29T13:36:53.157Z,23.3
2019-05-29T13:38:07.205Z,24.2
2019-05-29T13:39:21.283Z,23.6
2019-05-29T13:40:35.261Z,23.1
2019-05-29T13:41:49.279Z,23.2
2019-05-29T13:43:03.380Z,23.2
2019-05-29T13:44:17.369Z,23.5
2019-05-29T13:45:31.434Z,23
2019-05-29T13:46:45.606Z,23.1
2019-05-29T13:47:59.514Z,23.3
2019-05-29T13:49:13.628Z,23.6
2019-05-29T13:50:27.698Z,23.3
2019-05-29T13:51:41.726Z,23.5
2019-05-29T13:54:09.804Z,22.3
2019-05-29T13:55:23.836Z,22.5
2019-05-29T13:56:37.882Z,21.6
2019-05-29T13:57:51.943Z,22.6
2019-05-29T14:01:36.469Z,21.2
2019-05-29T14:02:51.521Z,21.6
2019-05-29T14:04:02.202Z,22.7
2019-05-29T14:05:16.308Z,22.9
2019-05-29T14:06:30.353Z,22.1
2019-05-29T14:07:44.495Z,21.3
2019-05-29T14:08:58.652Z,21.7
2019-05-29T14:10:12.532Z,22.5
2019-05-29T14:11:26.574Z,22.3
2019-05-29T14:12:40.747Z,22.9
2019-05-29T14:13:54.716Z,23.5
2019-05-29T14:15:08.798Z,24.4
2019-05-29T14:16:22.951Z,24.6
2019-05-29T14:17:37.111Z,23.4
2019-05-29T14:18:51.083Z,22.9
2019-05-29T14:20:07.240Z,23.1
2019-05-29T14:21:19.072Z,23.5
2019-05-29T14:22:33.132Z,23.4
2019-05-29T14:23:47.194Z,24
2019-05-29T14:25:01.277Z,24.7
2019-05-29T14:26:15.303Z,24.9
2019-05-29T14:27:29.365Z,24.5
2019-05-29T14:28:43.412Z,23.6
2019-05-29T14:29:57.475Z,23.2
2019-05-29T14:31:11.557Z,23.6
2019-05-29T14:32:25.583Z,24.3
2019-05-29T14:33:39.622Z,24
2019-05-29T14:34:53.685Z,24.4
2019-05-29T14:36:07.738Z,24.4
2019-05-29T14:37:21.903Z,23.3
2019-05-29T14:38:36.047Z,22.4
2019-05-29T14:39:49.947Z,21.9
2019-05-29T14:41:04.080Z,22.4
2019-05-29T14:42:18.088Z,23.6
2019-05-29T14:43:32.155Z,24.1
2019-05-29T14:44:46.302Z,23.7
2019-05-29T14:46:00.273Z,22.9
2019-05-29T14:47:14.352Z,22.3
2019-05-29T14:48:28.438Z,22.3
2019-05-29T14:49:42.561Z,22.4
2019-05-29T14:50:56.556Z,23.1
2019-05-29T14:52:10.641Z,22.7
2019-05-29T14:53:24.694Z,23.3
2019-05-29T14:54:38.872Z,23.1
2019-05-29T14:55:52.887Z,23.6
2019-05-29T14:57:06.884Z,23.9
2019-05-29T14:58:20.956Z,23.9
2019-05-29T14:59:34.979Z,23.5
2019-05-29T15:00:49.070Z,23.3
2019-05-29T15:02:03.204Z,23.2
2019-05-29T15:03:17.246Z,23.3
2019-05-29T15:04:31.266Z,23.6
2019-05-29T15:05:45.353Z,24.4
2019-05-29T15:06:59.358Z,24
2019-05-29T15:08:13.501Z,24.5
2019-05-29T15:09:27.480Z,25.1
2019-05-29T15:10:41.526Z,25
2019-05-29T15:11:55.602Z,24.3
2019-05-29T15:13:09.660Z,25.1
2019-05-29T15:15:37.761Z,26.1
2019-05-29T15:16:51.785Z,26.3
2019-05-29T15:18:06.520Z,26.7
2019-05-29T15:19:19.870Z,26.6
2019-05-29T15:20:33.939Z,26.2
2019-05-29T15:23:06.113Z,24.8
2019-05-29T15:24:16.082Z,24.9
2019-05-29T15:25:30.129Z,24.2
2019-05-29T15:26:44.205Z,23.5
2019-05-29T15:27:58.212Z,23
2019-05-29T15:30:26.368Z,23
2019-05-29T15:31:40.381Z,23.6
2019-05-29T15:32:54.629Z,24.2
2019-05-29T15:34:08.505Z,25
2019-05-29T15:35:22.673Z,23.9
2019-05-29T15:39:04.771Z,22.6
2019-05-29T15:40:18.848Z,23.2
2019-05-29T15:41:32.933Z,22.9
2019-05-29T15:42:47.069Z,22.4
2019-05-29T15:44:01.156Z,23.1
2019-05-29T15:45:15.136Z,23.1
2019-05-29T15:46:29.305Z,22.9
2019-05-29T15:47:43.277Z,23.5
2019-05-29T15:48:57.366Z,23.4
2019-05-29T15:50:11.447Z,24
2019-05-29T15:51:25.481Z,24.2
2019-05-29T15:52:39.546Z,23.5
2019-05-29T15:53:53.611Z,23.8
2019-05-29T15:56:21.809Z,24.2
2019-05-29T15:57:35.797Z,24.3
2019-05-29T15:58:49.875Z,24.7
2019-05-29T16:00:04.034Z,25.3
2019-05-29T16:01:18.048Z,25.3
2019-05-29T16:03:46.152Z,25.9
2019-05-29T16:05:00.300Z,26.5
2019-05-29T16:07:28.470Z,27.5
2019-05-29T16:08:42.408Z,26.5
2019-05-29T16:09:56.524Z,26.3
2019-05-29T16:11:10.552Z,26.3
2019-05-29T16:12:24.718Z,25.7
2019-05-29T16:13:38.696Z,24.7
2019-05-29T16:14:52.728Z,23.5
2019-05-29T16:16:06.839Z,23.6
2019-05-29T16:17:20.900Z,23.8
2019-05-29T16:18:34.919Z,24.6
2019-05-29T16:19:48.987Z,25.1
2019-05-29T16:22:17.240Z,24.9
2019-05-29T16:23:31.193Z,24.7
2019-05-29T16:25:59.389Z,24.8
2019-05-29T16:27:13.381Z,25.2
2019-05-29T16:28:27.441Z,25.6
2019-05-29T16:29:41.503Z,26.2
2019-05-29T16:30:55.652Z,26.2
2019-05-29T16:32:09.653Z,25.6
2019-05-29T16:33:23.889Z,25.2
2019-05-29T16:34:37.759Z,23.9
2019-05-29T16:37:05.975Z,24.3
2019-05-29T16:38:21.797Z,23.9
2019-05-29T16:40:48.154Z,24.5
2019-05-29T16:42:02.231Z,24.7
2019-05-29T16:43:16.320Z,24.8
2019-05-29T16:44:30.509Z,24.7
2019-05-29T16:45:44.446Z,24.9
2019-05-29T16:48:14.159Z,24.3
2019-05-29T16:49:26.750Z,24.3
2019-05-29T16:50:40.780Z,24.5
2019-05-29T16:51:54.917Z,24.8
2019-05-29T16:53:08.965Z,24.6
2019-05-29T16:54:23.044Z,24.3
2019-05-29T16:55:37.163Z,24.4
2019-05-29T16:56:51.234Z,24.5
2019-05-29T16:58:05.302Z,23.4
2019-05-29T16:59:19.381Z,22.9
2019-05-29T17:00:33.468Z,22.6
2019-05-29T17:01:47.566Z,22.9
2019-05-29T17:03:01.642Z,22.4
2019-05-29T17:04:15.827Z,22.2
2019-05-29T17:05:29.810Z,21.8
2019-05-29T17:06:43.907Z,22.5
2019-05-29T17:07:58.080Z,23.3
2019-05-29T17:09:12.154Z,23.5
2019-05-29T17:10:26.258Z,24
2019-05-29T17:11:40.437Z,24.3
2019-05-29T17:12:54.368Z,24.5
2019-05-29T17:14:09.602Z,24.6
2019-05-29T17:15:22.588Z,24.4
2019-05-29T17:17:50.800Z,23.5
2019-05-29T17:19:04.830Z,23.6
2019-05-29T17:20:19.008Z,23.6
2019-05-29T17:21:33.078Z,23.2
2019-05-29T17:22:47.128Z,22
2019-05-29T17:24:01.289Z,21.8
2019-05-29T17:25:15.370Z,22.4
2019-05-29T17:26:29.414Z,23
2019-05-29T17:27:43.623Z,23.4